Time;durP1;ratioP1;P1;durP2;ratioP2;P2;SDS_P1;SDS_P2;PMS_P1;PMS_P2;Temp;Humidity;BMP_temperature;BMP_pressure;BME280_temperature;BME280_humidity;BME280_pressure;Samples;Min_cycle;Max_cycle;Signal;HPM_P1;HPM_P2
2022/08/10 00:02:38;;;;;;;15.20;4.60;;;;;;;12.92;100.00;99919.20;2257079;77;21482;-59
2022/08/10 00:05:40;;;;;;;17.50;4.90;;;;;;;12.89;100.00;99918.05;2286870;77;21052;-58
2022/08/10 00:08:42;;;;;;;19.75;5.65;;;;;;;12.82;100.00;99912.25;2281638;77;20985;-59
2022/08/10 00:11:43;;;;;;;21.30;6.23;;;;;;;12.82;100.00;99914.89;2281854;77;20971;-63
2022/08/10 00:14:45;;;;;;;18.10;5.33;;;;;;;12.79;100.00;99913.26;2282957;77;21506;-58
2022/08/10 00:17:46;;;;;;;18.42;5.62;;;;;;;12.80;100.00;99915.41;2282071;77;22522;-58
2022/08/10 00:20:48;;;;;;;18.47;5.47;;;;;;;12.75;100.00;99918.30;2283475;77;21577;-58
2022/08/10 00:23:49;;;;;;;18.67;6.07;;;;;;;12.74;100.00;99910.03;2283233;77;20977;-60
2022/08/10 00:26:50;;;;;;;15.17;4.27;;;;;;;12.80;100.00;99904.88;2287761;77;21008;-60
2022/08/10 00:29:52;;;;;;;7.83;2.73;;;;;;;12.64;100.00;99905.72;2285140;77;21023;-60
2022/08/10 00:32:53;;;;;;;15.77;4.57;;;;;;;12.44;100.00;99910.70;2281331;77;20996;-66
2022/08/10 00:35:55;;;;;;;15.88;4.33;;;;;;;12.27;100.00;99912.03;2241089;78;20993;-61
2022/08/10 00:38:56;;;;;;;21.40;6.40;;;;;;;12.15;100.00;99912.16;2247847;79;21046;-58
2022/08/10 00:41:58;;;;;;;18.82;6.45;;;;;;;12.08;100.00;99910.77;2245032;78;21565;-61
2022/08/10 00:45:00;;;;;;;21.57;6.47;;;;;;;12.17;100.00;99904.19;2282836;77;20996;-57
2022/08/10 00:48:01;;;;;;;18.37;5.42;;;;;;;12.24;100.00;99908.21;2284348;77;21043;-60
2022/08/10 00:51:03;;;;;;;21.67;7.63;;;;;;;12.25;100.00;99910.77;2281567;78;20989;-62
2022/08/10 00:54:05;;;;;;;11.10;3.37;;;;;;;12.28;100.00;99911.95;2280820;77;20981;-65
2022/08/10 00:57:07;;;;;;;13.05;3.55;;;;;;;12.31;100.00;99908.28;2284935;77;20989;-58
2022/08/10 01:00:08;;;;;;;16.02;4.83;;;;;;;12.32;100.00;99907.84;2282843;77;21008;-58
2022/08/10 01:03:10;;;;;;;19.12;6.47;;;;;;;12.27;100.00;99904.98;2284872;77;21385;-57
2022/08/10 01:06:12;;;;;;;21.10;5.50;;;;;;;12.32;100.00;99899.95;2284812;77;21074;-67
2022/08/10 01:09:13;;;;;;;19.07;5.22;;;;;;;12.32;100.00;99896.84;2286087;77;21610;-69
2022/08/10 01:12:15;;;;;;;17.07;5.17;;;;;;;12.36;100.00;99906.28;2280846;77;21128;-70
2022/08/10 01:15:16;;;;;;;20.67;6.20;;;;;;;12.33;100.00;99904.29;2287124;77;21589;-66
2022/08/10 01:18:18;;;;;;;19.90;6.12;;;;;;;12.35;100.00;99900.63;2285138;77;21089;-65
2022/08/10 01:21:19;;;;;;;19.57;6.57;;;;;;;12.39;100.00;99907.44;2281405;77;21091;-66
2022/08/10 01:24:21;;;;;;;23.75;7.28;;;;;;;12.37;100.00;99908.44;2285517;77;20996;-66
2022/08/10 01:27:22;;;;;;;22.95;7.30;;;;;;;12.39;100.00;99904.80;2282874;77;21003;-69
2022/08/10 01:30:24;;;;;;;21.97;7.33;;;;;;;12.43;100.00;99908.98;2283879;77;20961;-58
2022/08/10 01:33:26;;;;;;;20.25;6.75;;;;;;;12.43;100.00;99906.83;2285200;77;20996;-59
2022/08/10 01:36:27;;;;;;;20.97;6.85;;;;;;;12.39;100.00;99903.97;2246731;79;21017;-59
2022/08/10 01:39:29;;;;;;;19.37;6.23;;;;;;;12.30;100.00;99903.98;2237521;79;21002;-58
2022/08/10 01:42:31;;;;;;;19.35;6.00;;;;;;;12.28;100.00;99907.13;2240460;79;21063;-63
2022/08/10 01:45:32;;;;;;;21.37;6.70;;;;;;;12.23;100.00;99906.05;2243700;79;21036;-58
2022/08/10 01:48:33;;;;;;;20.17;6.63;;;;;;;12.16;100.00;99902.03;2245020;78;20996;-59
2022/08/10 01:51:35;;;;;;;21.25;7.03;;;;;;;12.22;100.00;99902.19;2241032;79;20977;-59
2022/08/10 01:54:37;;;;;;;19.70;5.87;;;;;;;12.18;100.00;99910.69;2241262;78;21515;-59
2022/08/10 01:57:38;;;;;;;22.50;6.97;;;;;;;12.14;100.00;99905.22;2237703;79;21028;-58
2022/08/10 02:00:40;;;;;;;13.53;3.63;;;;;;;11.98;100.00;99907.73;2237452;78;20993;-70
2022/08/10 02:03:41;;;;;;;18.70;5.33;;;;;;;11.91;100.00;99903.67;2246614;79;21031;-69
2022/08/10 02:06:42;;;;;;;14.27;4.80;;;;;;;11.69;100.00;99904.73;2241078;79;21035;-67
2022/08/10 02:09:44;;;;;;;17.33;5.47;;;;;;;11.53;100.00;99909.03;2242950;79;21019;-63
2022/08/10 02:12:45;;;;;;;18.67;5.83;;;;;;;11.50;100.00;99908.70;2237941;79;21032;-67
2022/08/10 02:15:47;;;;;;;17.98;5.58;;;;;;;11.53;100.00;99910.34;2243985;79;21499;-67
2022/08/10 02:18:49;;;;;;;20.60;5.80;;;;;;;11.53;100.00;99909.03;2241861;79;21001;-64
2022/08/10 02:21:50;;;;;;;20.27;6.10;;;;;;;11.53;100.00;99909.87;2241385;79;21491;-66
2022/08/10 02:24:55;;;;;;;19.20;5.83;;;;;;;11.53;100.00;99911.19;2240489;79;21032;-68
2022/08/10 02:27:57;;;;;;;18.50;6.05;;;;;;;11.46;100.00;99911.09;2243489;78;21629;-70
2022/08/10 02:30:58;;;;;;;22.62;8.18;;;;;;;11.63;100.00;99911.60;2233761;79;21059;-68
2022/08/10 02:34:00;;;;;;;18.73;5.65;;;;;;;11.51;100.00;99908.27;2235439;79;21013;-70
2022/08/10 02:37:01;;;;;;;15.50;4.62;;;;;;;11.37;100.00;99913.69;2240647;79;21051;-65
2022/08/10 02:40:03;;;;;;;18.13;5.23;;;;;;;11.32;100.00;99917.45;2240018;79;21007;-65
2022/08/10 02:43:04;;;;;;;15.32;4.30;;;;;;;11.24;100.00;99914.72;2243898;79;21566;-70
2022/08/10 02:46:06;;;;;;;10.05;2.95;;;;;;;11.12;100.00;99918.38;2239449;79;21039;-66
2022/08/10 02:49:07;;;;;;;8.60;3.22;;;;;;;11.13;100.00;99919.61;2242628;78;21479;-66
2022/08/10 02:52:09;;;;;;;16.93;4.33;;;;;;;11.00;100.00;99921.11;2240136;78;20992;-68
2022/08/10 02:55:10;;;;;;;12.60;3.97;;;;;;;10.97;100.00;99926.03;2240514;79;20969;-67
2022/08/10 02:58:12;;;;;;;10.63;3.70;;;;;;;10.98;100.00;99922.96;2240432;79;21028;-59
2022/08/10 03:01:13;;;;;;;14.80;4.43;;;;;;;10.82;100.00;99922.33;2238198;79;20993;-63
2022/08/10 03:04:15;;;;;;;14.20;3.87;;;;;;;10.69;100.00;99925.11;2243635;79;21032;-62
2022/08/10 03:07:16;;;;;;;13.53;3.70;;;;;;;10.79;100.00;99924.22;2241897;79;21212;-64
2022/08/10 03:10:18;;;;;;;11.97;3.30;;;;;;;10.76;100.00;99923.92;2238548;79;21639;-67
2022/08/10 03:13:19;;;;;;;13.40;4.10;;;;;;;10.81;100.00;99925.02;2243144;79;21055;-67
2022/08/10 03:16:21;;;;;;;12.77;3.80;;;;;;;10.83;100.00;99927.11;2243904;79;21439;-67
2022/08/10 03:19:22;;;;;;;8.70;3.30;;;;;;;10.78;100.00;99929.10;2238221;79;21005;-64
2022/08/10 03:22:24;;;;;;;19.47;4.30;;;;;;;10.79;100.00;99924.22;2243023;79;20996;-65
2022/08/10 03:25:25;;;;;;;11.27;3.17;;;;;;;10.81;100.00;99930.27;2243342;79;21021;-63
2022/08/10 03:28:26;;;;;;;14.00;3.57;;;;;;;10.90;100.00;99924.60;2236867;79;20997;-69
2022/08/10 03:31:28;;;;;;;13.85;4.20;;;;;;;10.94;100.00;99927.95;2218836;79;21017;-62
2022/08/10 03:34:30;;;;;;;12.40;3.75;;;;;;;10.95;100.00;99923.08;2199648;80;21056;-58
2022/08/10 03:37:31;;;;;;;16.47;4.00;;;;;;;10.99;100.00;99925.52;2196798;80;21076;-58
2022/08/10 03:40:33;;;;;;;11.70;3.37;;;;;;;11.04;100.00;99923.52;2199235;80;21504;-62
2022/08/10 03:43:34;;;;;;;6.70;2.35;;;;;;;11.08;100.00;99929.50;2202331;79;21651;-58
2022/08/10 03:46:36;;;;;;;12.65;3.85;;;;;;;11.17;100.00;99926.91;2206001;79;21052;-58
2022/08/10 03:49:37;;;;;;;7.60;2.60;;;;;;;11.13;100.00;99926.17;2200303;79;20978;-59
2022/08/10 03:52:39;;;;;;;9.07;2.70;;;;;;;11.18;100.00;99933.88;2199956;80;21005;-58
2022/08/10 03:55:40;;;;;;;9.18;2.70;;;;;;;11.24;100.00;99933.58;2201847;80;21096;-60
2022/08/10 03:58:42;;;;;;;7.60;2.80;;;;;;;11.19;100.00;99930.30;2201904;80;21029;-61
2022/08/10 04:01:43;;;;;;;6.87;2.60;;;;;;;11.24;100.00;99937.52;2199202;80;21048;-63
2022/08/10 04:04:45;;;;;;;11.97;3.13;;;;;;;11.47;100.00;99941.70;2203396;79;21072;-58
2022/08/10 04:07:47;;;;;;;9.68;2.72;;;;;;;11.49;100.00;99945.56;2200262;80;21664;-59
2022/08/10 04:10:48;;;;;;;9.33;3.23;;;;;;;11.53;100.00;99945.34;2195864;80;21041;-61
2022/08/10 04:13:50;;;;;;;3.63;1.67;;;;;;;11.49;100.00;99942.94;2204632;79;21048;-59
2022/08/10 04:16:51;;;;;;;4.47;1.72;;;;;;;11.44;100.00;99949.25;2202107;79;22075;-60
2022/08/10 04:19:53;;;;;;;10.37;3.73;;;;;;;11.51;100.00;99948.99;2210435;79;21033;-58
2022/08/10 04:22:54;;;;;;;6.80;2.50;;;;;;;11.71;100.00;99953.27;2217331;79;21031;-67
2022/08/10 04:25:56;;;;;;;16.52;4.80;;;;;;;12.12;100.00;99953.95;2227911;78;20984;-59
2022/08/10 04:28:58;;;;;;;15.68;4.95;;;;;;;12.48;100.00;99947.77;2229822;79;21069;-59
2022/08/10 04:31:59;;;;;;;12.70;4.43;;;;;;;12.62;100.00;99952.30;2204101;79;20970;-66
2022/08/10 04:35:01;;;;;;;15.70;4.27;;;;;;;12.79;100.00;99946.64;2219539;79;21559;-61
2022/08/10 04:38:03;;;;;;;16.70;4.62;;;;;;;12.92;100.00;99947.69;2201799;79;20985;-61
2022/08/10 04:41:04;;;;;;;18.42;5.97;;;;;;;13.11;100.00;99944.08;2256816;77;21040;-60
2022/08/10 04:44:06;;;;;;;20.80;5.33;;;;;;;13.30;100.00;99946.56;2225243;78;21539;-60
2022/08/10 04:47:08;;;;;;;19.67;5.20;;;;;;;13.54;100.00;99952.30;2219510;79;20992;-69
2022/08/10 04:50:09;;;;;;;18.97;5.37;;;;;;;13.97;100.00;99941.13;2214459;79;20954;-59
2022/08/10 04:53:11;;;;;;;17.90;6.00;;;;;;;14.41;100.00;99948.25;2208812;79;21527;-71
2022/08/10 04:56:12;;;;;;;20.47;6.57;;;;;;;14.75;100.00;99947.57;2217023;79;21053;-70
2022/08/10 04:59:14;;;;;;;23.80;6.45;;;;;;;15.09;100.00;99955.25;2213447;79;21060;-72
2022/08/10 05:02:15;;;;;;;20.70;6.67;;;;;;;15.32;100.00;99953.81;2210743;79;21055;-71
2022/08/10 05:05:17;;;;;;;18.30;6.27;;;;;;;15.60;100.00;99955.53;2209799;80;21123;-70
2022/08/10 05:08:18;;;;;;;19.67;6.83;;;;;;;15.87;100.00;99951.61;2219556;79;21057;-71
2022/08/10 05:11:20;;;;;;;19.95;6.83;;;;;;;16.02;100.00;99955.06;2208977;79;20993;-70
2022/08/10 05:14:21;;;;;;;21.37;7.57;;;;;;;16.15;100.00;99960.41;2210028;79;21585;-71
2022/08/10 05:17:23;;;;;;;20.85;7.10;;;;;;;16.33;100.00;99962.28;2211051;79;21335;-71
2022/08/10 05:20:24;;;;;;;22.33;7.57;;;;;;;16.73;100.00;99966.20;2211018;79;21032;-70
2022/08/10 05:23:26;;;;;;;21.07;7.47;;;;;;;17.13;100.00;99962.14;2210261;79;21294;-71
2022/08/10 05:26:27;;;;;;;24.35;7.90;;;;;;;17.29;100.00;99960.58;2210154;79;21012;-70
2022/08/10 05:29:29;;;;;;;25.35;7.90;;;;;;;17.47;100.00;99967.71;2211094;79;21722;-69
2022/08/10 05:32:30;;;;;;;22.80;7.65;;;;;;;17.65;100.00;99971.31;2211034;79;20996;-68
2022/08/10 05:35:33;;;;;;;21.30;7.70;;;;;;;17.84;100.00;99963.72;2209080;79;21670;-70
2022/08/10 05:38:35;;;;;;;19.60;7.12;;;;;;;18.08;100.00;99960.73;2210468;79;21000;-70
2022/08/10 05:41:36;;;;;;;21.70;7.30;;;;;;;18.35;100.00;99958.64;2213003;79;20998;-70
2022/08/10 05:44:37;;;;;;;23.38;7.20;;;;;;;18.60;100.00;99962.58;2215217;79;20992;-70
2022/08/10 05:47:39;;;;;;;20.48;7.10;;;;;;;18.73;100.00;99956.67;2210551;79;21077;-68
2022/08/10 05:50:40;;;;;;;22.50;7.37;;;;;;;19.01;100.00;99953.25;2210100;79;21552;-70
2022/08/10 05:53:42;;;;;;;21.12;7.72;;;;;;;19.21;100.00;99954.34;2207176;80;20961;-70
2022/08/10 05:56:43;;;;;;;20.48;7.58;;;;;;;19.37;100.00;99957.95;2253402;78;21493;-70
2022/08/10 05:59:45;;;;;;;19.12;6.78;;;;;;;19.51;100.00;99963.48;2219290;79;21088;-70
2022/08/10 06:02:46;;;;;;;23.12;7.25;;;;;;;19.65;100.00;99959.25;2207938;80;21011;-68
2022/08/10 06:05:48;;;;;;;19.25;6.62;;;;;;;19.61;100.00;99964.92;2213242;80;20992;-68
2022/08/10 06:08:49;;;;;;;21.20;7.05;;;;;;;19.64;100.00;99965.99;2216025;79;21069;-68
2022/08/10 06:11:52;;;;;;;18.50;6.30;;;;;;;19.89;100.00;99960.89;2217653;79;21064;-68
2022/08/10 06:17:58;;;;;;;19.05;6.28;;;;;;;20.02;100.00;99960.23;2199492;80;21543;-69
2022/08/10 06:21:00;;;;;;;19.77;6.08;;;;;;;20.14;100.00;99962.39;2209106;80;21594;-70
2022/08/10 06:24:02;;;;;;;20.05;6.20;;;;;;;20.31;100.00;99964.95;2253315;78;20979;-64
2022/08/10 06:27:03;;;;;;;17.77;5.80;;;;;;;20.49;100.00;99959.91;2250041;78;21489;-69
2022/08/10 06:30:05;;;;;;;18.62;6.25;;;;;;;20.67;100.00;99960.18;2218714;80;21004;-70
2022/08/10 06:33:06;;;;;;;18.75;5.50;;;;;;;20.94;100.00;99969.46;2207795;80;21020;-69
2022/08/10 06:36:09;;;;;;;19.65;6.22;;;;;;;21.10;100.00;99967.64;2250769;78;20980;-70
2022/08/10 06:39:10;;;;;;;17.15;5.70;;;;;;;21.18;100.00;99965.66;2210809;79;20990;-68
2022/08/10 06:42:13;;;;;;;17.17;5.58;;;;;;;21.27;100.00;99967.00;2211930;79;21013;-69
2022/08/10 06:45:15;;;;;;;16.40;4.83;;;;;;;21.40;100.00;99968.59;2212830;79;21555;-70
2022/08/10 06:48:16;;;;;;;18.10;4.95;;;;;;;21.56;100.00;99958.77;2208660;80;21000;-69
2022/08/10 06:51:18;;;;;;;14.28;4.47;;;;;;;21.71;100.00;99964.08;2249996;78;21030;-68
2022/08/10 06:54:19;;;;;;;15.10;4.67;;;;;;;21.80;97.43;99966.41;2212483;79;21075;-70
2022/08/10 06:57:21;;;;;;;14.80;4.20;;;;;;;21.90;100.00;99967.26;2210469;80;21078;-66
2022/08/10 07:00:22;;;;;;;16.23;4.28;;;;;;;22.13;95.54;99969.67;2212424;79;21605;-69
2022/08/10 07:03:23;;;;;;;12.20;3.60;;;;;;;22.28;94.33;99970.95;2213334;79;20980;-66
2022/08/10 07:06:25;;;;;;;14.65;3.62;;;;;;;22.49;93.77;99971.30;2210609;79;21052;-70
2022/08/10 07:09:26;;;;;;;11.78;3.90;;;;;;;22.60;89.39;99966.30;2211595;79;21053;-70
2022/08/10 07:12:28;;;;;;;;;;;;;;;22.66;88.18;99969.73;2214897;79;21005;-70
2022/08/10 07:15:29;;;;;;;9.10;3.20;;;;;;;22.77;88.83;99960.68;2211348;80;20137;-70
2022/08/10 07:18:31;;;;;;;11.65;3.58;;;;;;;22.77;85.68;99956.67;2211251;79;21021;-69
2022/08/10 07:21:33;;;;;;;11.03;3.40;;;;;;;22.94;85.20;99953.73;2211626;80;21011;-70
2022/08/10 07:24:34;;;;;;;11.35;3.08;;;;;;;23.20;83.37;99951.27;2250553;78;21015;-70
2022/08/10 07:27:36;;;;;;;8.88;3.17;;;;;;;23.37;84.06;99956.84;2210996;80;21480;-69
2022/08/10 07:30:37;;;;;;;;;;;;;;;23.23;78.76;99957.69;2214019;79;21009;-70
2022/08/10 07:33:39;;;;;;;7.90;3.13;;;;;;;23.17;76.81;99956.44;2215859;80;20094;-70
2022/08/10 07:36:40;;;;;;;11.18;2.67;;;;;;;23.23;81.74;99956.34;2215237;79;21036;-68
2022/08/10 07:39:42;;;;;;;;;;;;;;;23.42;74.40;99955.40;2215260;79;21016;-70
2022/08/10 07:42:43;;;;;;;10.13;2.90;;;;;;;23.28;74.63;99953.22;2210888;79;20142;-66
2022/08/10 07:45:45;;;;;;;10.45;3.10;;;;;;;23.57;78.21;99958.41;2209501;80;21017;-70
2022/08/10 07:48:46;;;;;;;10.78;2.70;;;;;;;23.82;73.48;99954.16;2210836;79;20980;-70
2022/08/10 07:51:48;;;;;;;9.18;2.60;;;;;;;24.02;71.58;99948.20;2210632;80;21512;-70
2022/08/10 07:54:49;;;;;;;9.95;3.10;;;;;;;23.98;67.79;99945.98;2211580;79;20958;-70
2022/08/10 07:57:51;;;;;;;11.03;2.77;;;;;;;23.91;68.23;99953.78;2212683;79;21471;-70
2022/08/10 08:00:52;;;;;;;10.08;2.72;;;;;;;24.10;69.26;99959.47;2209440;80;21011;-70
2022/08/10 08:03:53;;;;;;;8.55;2.92;;;;;;;24.39;68.91;99953.02;2211639;79;21001;-68
2022/08/10 08:06:57;;;;;;;9.55;2.75;;;;;;;24.72;67.55;99950.59;2211776;79;21452;-70
2022/08/10 08:09:58;;;;;;;7.78;2.70;;;;;;;24.84;69.18;99952.50;2193211;79;21569;-70
2022/08/10 08:13:00;;;;;;;6.80;2.42;;;;;;;24.98;70.02;99958.62;2209566;80;20980;-70
2022/08/10 08:16:03;;;;;;;10.50;2.70;;;;;;;25.39;66.17;99953.48;2211694;79;21477;-70
2022/08/10 08:19:04;;;;;;;10.55;2.40;;;;;;;25.85;63.44;99950.92;2211004;79;20996;-70
2022/08/10 08:22:06;;;;;;;7.08;2.30;;;;;;;25.85;61.13;99945.03;2209963;79;20986;-71
2022/08/10 08:25:07;;;;;;;7.20;2.65;;;;;;;25.68;53.34;99952.73;2211850;80;21049;-70
2022/08/10 08:28:09;;;;;;;6.85;2.47;;;;;;;25.04;59.14;99955.80;2209784;80;21506;-70
2022/08/10 08:31:10;;;;;;;14.23;2.95;;;;;;;25.08;61.07;99939.24;2252098;78;20991;-70
2022/08/10 08:34:12;;;;;;;9.90;2.47;;;;;;;25.37;57.50;99948.78;2249818;78;21587;-70
2022/08/10 08:37:14;;;;;;;9.50;2.60;;;;;;;24.82;58.76;99945.95;2249941;78;21055;-70
2022/08/10 08:40:15;;;;;;;12.00;2.87;;;;;;;24.51;58.95;99932.14;2211669;79;21468;-70
2022/08/10 08:43:18;;;;;;;17.70;3.37;;;;;;;24.32;61.32;99947.93;2218218;79;21017;-70
2022/08/10 08:46:19;;;;;;;10.13;2.72;;;;;;;24.63;61.12;99938.15;2218616;79;21013;-70
2022/08/10 08:49:21;;;;;;;10.00;2.80;;;;;;;24.69;59.97;99936.16;2221089;79;21088;-70
2022/08/10 08:52:22;;;;;;;12.33;2.83;;;;;;;24.69;60.34;99934.82;2208291;80;21591;-70
2022/08/10 08:55:24;;;;;;;7.50;2.70;;;;;;;24.53;58.86;99947.09;2249414;78;20982;-70
2022/08/10 08:58:26;;;;;;;12.25;2.83;;;;;;;24.18;63.47;99938.63;2212096;79;20997;-68
2022/08/10 09:01:27;;;;;;;10.65;2.98;;;;;;;23.81;61.57;99939.59;2208045;80;21003;-70
2022/08/10 09:04:29;;;;;;;7.75;2.85;;;;;;;23.49;64.90;99934.23;2250750;78;20972;-70
2022/08/10 09:07:33;;;;;;;7.10;2.75;;;;;;;23.42;63.24;99942.02;2211375;79;21488;-69
2022/08/10 09:10:34;;;;;;;8.25;2.90;;;;;;;24.00;69.50;99939.45;2218745;79;21603;-70
2022/08/10 09:13:36;;;;;;;9.13;3.20;;;;;;;24.53;58.91;99932.84;2208001;80;20988;-70
2022/08/10 09:16:38;;;;;;;8.60;2.52;;;;;;;24.34;58.29;99938.74;2250989;78;21030;-70
2022/08/10 09:19:39;;;;;;;8.93;2.50;;;;;;;24.30;61.65;99936.02;2250936;78;21545;-68
2022/08/10 09:22:43;;;;;;;15.72;2.90;;;;;;;25.05;58.99;99925.29;2220612;79;20985;-70
2022/08/10 09:25:44;;;;;;;13.30;2.70;;;;;;;24.98;60.11;99934.98;2189337;80;21023;-70
2022/08/10 09:28:46;;;;;;;;;;;;;;;24.95;57.04;99936.65;2210845;80;21039;-67
2022/08/10 09:31:47;;;;;;;8.63;2.90;;;;;;;24.36;58.48;99935.91;2215451;79;20132;-71
2022/08/10 09:34:49;;;;;;;11.88;3.33;;;;;;;24.54;59.81;99934.54;2216740;79;21028;-71
2022/08/10 09:37:53;;;;;;;11.35;2.80;;;;;;;25.13;59.19;99928.02;2217572;79;21496;-70
2022/08/10 09:40:55;;;;;;;9.68;2.62;;;;;;;25.56;52.52;99922.15;2220289;79;21005;-70
2022/08/10 09:43:56;;;;;;;7.83;2.52;;;;;;;25.80;53.12;99925.05;2212704;79;21088;-70
2022/08/10 09:46:58;;;;;;;9.58;2.80;;;;;;;25.47;55.45;99927.14;2213603;79;20976;-71
2022/08/10 09:49:59;;;;;;;6.50;2.20;;;;;;;25.47;57.46;99918.25;2217981;79;20960;-70
2022/08/10 09:53:01;;;;;;;8.00;2.60;;;;;;;25.78;54.41;99918.49;2214922;79;21061;-71
2022/08/10 09:56:03;;;;;;;;;;;;;;;26.19;51.18;99912.33;2216678;79;21111;-71
2022/08/10 09:59:04;;;;;;;8.15;2.52;;;;;;;25.63;52.42;99900.85;2210850;79;20083;-71
2022/08/10 10:02:06;;;;;;;9.10;2.58;;;;;;;24.93;51.88;99899.25;2209982;80;21484;-70
2022/08/10 10:05:08;;;;;;;8.90;2.62;;;;;;;25.38;57.41;99895.91;2210517;79;20966;-70
2022/08/10 10:08:09;;;;;;;11.75;2.47;;;;;;;26.66;48.98;99875.78;2210096;80;21016;-68
2022/08/10 10:11:10;;;;;;;;;;;;;;;26.66;48.98;99875.78;2213204;79;20968;-70
2022/08/10 10:14:12;;;;;;;12.63;2.67;;;;;;;27.16;49.55;99873.26;2213389;79;20111;-69
2022/08/10 10:17:14;;;;;;;9.03;2.42;;;;;;;27.77;45.75;99878.81;2209535;79;20985;-70
2022/08/10 10:20:15;;;;;;;4.92;2.08;;;;;;;27.67;44.63;99879.57;2210704;79;21004;-70
2022/08/10 10:23:17;;;;;;;7.47;2.27;;;;;;;27.77;41.11;99880.16;2212054;79;21526;-69
2022/08/10 10:26:19;;;;;;;5.95;2.37;;;;;;;27.70;45.88;99869.77;2210675;79;20965;-70
2022/08/10 10:29:20;;;;;;;8.38;2.50;;;;;;;27.65;44.87;99877.02;2210175;80;21445;-69
2022/08/10 10:32:22;;;;;;;8.53;2.27;;;;;;;27.26;44.33;99871.70;2212278;79;20989;-70
2022/08/10 10:35:23;;;;;;;6.42;2.08;;;;;;;27.20;47.29;99866.52;2210804;79;21499;-69
2022/08/10 10:38:25;;;;;;;8.30;2.10;;;;;;;27.38;45.03;99871.64;2209910;79;21005;-70
2022/08/10 10:41:27;;;;;;;6.22;2.22;;;;;;;27.62;44.43;99883.30;2211614;79;21523;-70
2022/08/10 10:44:28;;;;;;;6.12;2.17;;;;;;;26.76;43.91;99864.34;2209171;80;20962;-70
2022/08/10 10:47:30;;;;;;;;;;;;;;;26.02;47.01;99870.68;2212969;79;21543;-62
2022/08/10 10:50:31;;;;;;;4.03;2.10;;;;;;;25.64;47.95;99871.62;2211774;79;20106;-63
2022/08/10 10:53:33;;;;;;;4.33;1.75;;;;;;;26.23;46.44;99870.17;2210693;80;21028;-67
2022/08/10 10:56:35;;;;;;;8.93;2.45;;;;;;;26.92;47.60;99858.05;2213192;79;21088;-71
2022/08/10 10:59:37;;;;;;;7.12;2.30;;;;;;;27.00;46.61;99851.30;2209995;80;21082;-70
2022/08/10 11:02:39;;;;;;;7.42;2.20;;;;;;;27.40;46.84;99866.11;2210900;79;21075;-70
2022/08/10 11:05:40;;;;;;;5.78;2.00;;;;;;;27.82;46.90;99845.41;2209315;80;21124;-70
2022/08/10 11:08:42;;;;;;;;;;;;;;;27.82;46.90;99845.41;2215773;79;21048;-69
2022/08/10 11:11:43;;;;;;;4.92;2.00;;;;;;;28.14;39.03;99852.07;2210055;80;20110;-70
2022/08/10 11:14:44;;;;;;;4.33;1.70;;;;;;;28.38;41.48;99840.20;2209840;79;21570;-68
2022/08/10 11:17:46;;;;;;;5.47;1.80;;;;;;;28.63;41.36;99828.67;2211162;79;21019;-70
2022/08/10 11:20:48;;;;;;;5.42;1.50;;;;;;;28.42;37.15;99829.89;2210517;79;21520;-71
2022/08/10 11:23:49;;;;;;;;;;;;;;;27.31;37.05;99836.49;2213428;79;20982;-70
2022/08/10 11:26:51;;;;;;;7.03;1.55;;;;;;;26.30;38.90;99843.94;2211530;79;20393;-71
2022/08/10 11:29:52;;;;;;;3.33;1.32;;;;;;;25.62;40.40;99843.27;2212151;79;21580;-71
2022/08/10 11:32:53;;;;;;;2.55;1.15;;;;;;;25.90;42.39;99835.22;2209338;79;20993;-70
2022/08/10 11:35:55;;;;;;;3.83;1.30;;;;;;;26.90;38.57;99830.49;2213093;79;21480;-70
2022/08/10 11:38:56;;;;;;;4.12;1.40;;;;;;;27.21;33.79;99823.77;2212584;79;20962;-71
2022/08/10 11:41:58;;;;;;;3.35;1.50;;;;;;;27.59;35.87;99823.86;2210213;79;21005;-71
2022/08/10 11:44:59;;;;;;;4.33;1.60;;;;;;;27.93;36.90;99815.84;2210853;79;21025;-70
2022/08/10 11:48:01;;;;;;;;;;;;;;;28.28;35.40;99815.37;2212949;79;21000;-70
2022/08/10 11:51:03;;;;;;;4.72;1.77;;;;;;;28.27;37.21;99809.11;2212538;79;20126;-70
2022/08/10 11:54:05;;;;;;;6.72;1.98;;;;;;;28.58;36.47;99818.08;2210675;79;22347;-70
2022/08/10 11:57:06;;;;;;;6.50;1.75;;;;;;;28.55;35.66;99813.88;2211614;79;21041;-70
2022/08/10 12:00:08;;;;;;;;;;;;;;;28.76;35.84;99819.91;2213714;79;21075;-70
2022/08/10 12:03:09;;;;;;;7.40;1.92;;;;;;;28.97;35.98;99816.94;2211341;79;20197;-71
2022/08/10 12:06:12;;;;;;;;;;;;;;;29.03;35.21;99811.63;2213615;79;20993;-70
2022/08/10 12:09:14;;;;;;;2.45;1.35;;;;;;;28.42;35.29;99809.66;2211950;79;20090;-67
2022/08/10 12:12:15;;;;;;;;;;;;;;;27.52;35.58;99819.39;2214355;79;21531;-71
2022/08/10 12:15:16;;;;;;;4.20;1.70;;;;;;;26.60;38.26;99814.92;2211645;79;20111;-70
2022/08/10 12:18:18;;;;;;;7.83;2.17;;;;;;;26.51;40.41;99823.22;2211268;80;20985;-70
2022/08/10 12:21:19;;;;;;;10.00;2.08;;;;;;;27.03;39.73;99812.42;2211772;79;20996;-70
2022/08/10 12:24:22;;;;;;;7.60;1.90;;;;;;;27.66;37.67;99813.22;2210397;79;21523;-70
2022/08/10 12:27:23;;;;;;;6.50;2.00;;;;;;;28.02;38.06;99803.67;2212276;79;21029;-70
2022/08/10 12:30:25;;;;;;;;;;;;;;;28.34;40.05;99801.95;2214437;79;21472;-70
2022/08/10 12:33:26;;;;;;;3.42;1.77;;;;;;;28.28;35.77;99797.31;2210139;79;20107;-70
2022/08/10 12:36:28;;;;;;;;;;;;;;;27.29;37.03;99804.84;2212716;80;21493;-70
2022/08/10 12:39:29;;;;;;;7.08;1.85;;;;;;;26.52;38.24;99802.01;2212923;79;20135;-72
2022/08/10 12:42:31;;;;;;;;;;;;;;;26.19;40.05;99809.67;2213690;79;21482;-69
2022/08/10 12:45:33;;;;;;;;;;;;;;;26.70;39.97;99801.30;2214721;79;20122;-70
2022/08/10 12:48:35;;;;;;;5.78;1.85;;;;;;;27.65;37.19;99796.19;2212047;79;20253;-67
2022/08/10 12:51:36;;;;;;;7.97;1.87;;;;;;;28.17;38.45;99783.79;2208630;80;21502;-68
2022/08/10 12:54:38;;;;;;;5.47;1.72;;;;;;;27.77;37.15;99793.06;2250293;78;20995;-70
2022/08/10 12:57:40;;;;;;;4.40;1.80;;;;;;;26.95;37.17;99796.66;2212351;79;21472;-69
2022/08/10 13:00:42;;;;;;;;;;;;;;;26.88;39.27;99794.83;2213172;79;21064;-68
2022/08/10 13:03:43;;;;;;;8.38;2.10;;;;;;;27.08;37.46;99783.97;2211250;79;20110;-70
2022/08/10 13:06:45;;;;;;;;;;;;;;;26.85;36.81;99783.93;2213306;79;21086;-68
2022/08/10 13:09:46;;;;;;;10.25;2.22;;;;;;;26.49;38.38;99788.39;2212433;79;20123;-69
2022/08/10 13:12:48;;;;;;;7.95;2.20;;;;;;;26.92;40.87;99772.79;2208133;80;21003;-71
2022/08/10 13:15:49;;;;;;;5.50;1.92;;;;;;;27.20;38.21;99763.37;2250663;78;21534;-71
2022/08/10 13:18:51;;;;;;;;;;;;;;;27.60;38.18;99776.22;2216416;79;21016;-68
2022/08/10 13:21:53;;;;;;;6.50;1.77;;;;;;;28.16;37.89;99761.88;2209954;80;20099;-68
2022/08/10 13:24:54;;;;;;;;;;;;;;;28.39;35.83;99760.10;2212936;80;21373;-70
2022/08/10 13:27:56;;;;;;;8.75;2.27;;;;;;;27.76;36.01;99767.98;2211333;79;20143;-70
2022/08/10 13:30:57;;;;;;;8.55;2.00;;;;;;;26.83;37.52;99773.83;2212171;79;20992;-72
2022/08/10 13:33:59;;;;;;;;;;;;;;;26.04;38.68;99770.55;2213212;79;22970;-72
2022/08/10 13:37:00;;;;;;;5.12;1.75;;;;;;;25.53;40.21;99768.05;2211765;79;20200;-72
2022/08/10 13:40:02;;;;;;;6.58;1.90;;;;;;;25.13;41.12;99765.63;2211871;80;21564;-71
2022/08/10 13:43:03;;;;;;;4.08;1.62;;;;;;;25.45;42.54;99755.96;2210277;79;20981;-71
2022/08/10 13:46:05;;;;;;;10.58;1.98;;;;;;;26.55;42.87;99747.86;2209743;80;21456;-70
2022/08/10 13:49:06;;;;;;;9.28;2.02;;;;;;;27.27;39.12;99739.57;2207914;80;21004;-72
2022/08/10 13:52:08;;;;;;;;;;;;;;;27.90;38.25;99738.04;2254063;78;21002;-71
2022/08/10 13:55:10;;;;;;;4.97;1.60;;;;;;;28.02;36.75;99737.62;2211357;79;20102;-71
2022/08/10 13:58:12;;;;;;;4.47;1.77;;;;;;;27.83;35.79;99734.41;2215229;80;20965;-71
2022/08/10 14:01:14;;;;;;;2.40;1.10;;;;;;;27.99;36.36;99730.73;2208802;80;21018;-69
2022/08/10 14:04:15;;;;;;;;;;;;;;;28.26;35.65;99736.48;2258847;78;21581;-71
2022/08/10 14:07:16;;;;;;;3.77;1.50;;;;;;;28.41;34.69;99729.22;2210484;80;20106;-70
2022/08/10 14:10:18;;;;;;;;;;;;;;;28.42;34.43;99726.86;2214284;79;20985;-68
2022/08/10 14:13:19;;;;;;;2.65;1.22;;;;;;;28.61;34.75;99719.20;2215521;79;20114;-71
2022/08/10 14:16:21;;;;;;;;;;;;;;;28.91;35.44;99724.56;2214282;79;21480;-69